Portada
METAR-TAF:

METAR-TAF

Aeroports :

Recife, Pernambuco, Brasil

latitud: 08-08S, longitud: 034-55W, altitud: 19 m

Observació

L'informe es va fer fa 1 hora i 3 minuts, a les 01:00 UTC
Vent 8 kt amb direcció variable
Temperatura 26°C
Humitat 74%
Pressió 1014 hPa
Visibilitat 10 km o més
Cel ennuvolat a una alçada de 1800 ft

METAR: SBRF 050100Z VRB08KT 9999 BKN018 26/21 Q1014

Hora: 23:03 (02:03 UTC)

Pronòstic

L'informe es va fer fa 5 hores i 3 minuts, a les 21:00 UTC
Pronòstic vàlid del 05 a les 00 UTC al 05 a les 24 UTC
Vent 10 kt del Est
Visibilitat 10 km o més
Núvols disperses a una alçada de 2000 ft

TAF: SBRF 042100Z 0500/0524 10010KT 9999 SCT020 TN25/0507Z TX28/0517Z RMK PHD

Observacions i pronòstics meteorològics de més de 4000 aeroports (METAR i TAF).

Les estacions disponibles són els punts grocs i vermells al mapa.

Posi el ratolí al punt desitjat per veure el nom de l'estació.

Feu clic per veure les observacions i els pronòstics meteorològics.

Per canviar el mapa: feu clic els botons verds amb una creu de color negre per apropar; al botó verd amb un guió per allunyar la imatge; o en les fletxes verdes per a mapes adjacents.


METAR-TAF: